sensor_id;sensor_type;location;lat;lon;timestamp;pressure;altitude;pressure_sealevel;temperature;humidity
39773;BME280;25451;51.960;6.250;2023-07-16T00:01:01;100738.09;;;21.14;68.24
39773;BME280;25451;51.960;6.250;2023-07-16T00:03:26;100751.00;;;21.15;68.31
39773;BME280;25451;51.960;6.250;2023-07-16T00:05:52;100758.09;;;21.13;68.23
39773;BME280;25451;51.960;6.250;2023-07-16T00:08:17;100746.16;;;21.07;68.30
39773;BME280;25451;51.960;6.250;2023-07-16T00:10:42;100748.13;;;21.07;68.25
39773;BME280;25451;51.960;6.250;2023-07-16T00:13:08;100762.47;;;21.05;68.29
39773;BME280;25451;51.960;6.250;2023-07-16T00:15:33;100753.63;;;20.98;68.36
39773;BME280;25451;51.960;6.250;2023-07-16T00:17:59;100756.09;;;21.00;68.42
39773;BME280;25451;51.960;6.250;2023-07-16T00:20:24;100753.09;;;20.96;68.37
39773;BME280;25451;51.960;6.250;2023-07-16T00:22:50;100756.22;;;20.95;68.46
39773;BME280;25451;51.960;6.250;2023-07-16T00:25:15;100745.75;;;20.87;68.43
39773;BME280;25451;51.960;6.250;2023-07-16T00:27:41;100749.88;;;20.89;68.55
39773;BME280;25451;51.960;6.250;2023-07-16T00:30:07;100759.47;;;20.88;68.52
39773;BME280;25451;51.960;6.250;2023-07-16T00:32:33;100764.03;;;20.84;68.50
39773;BME280;25451;51.960;6.250;2023-07-16T00:34:58;100759.56;;;20.83;68.54
39773;BME280;25451;51.960;6.250;2023-07-16T00:37:23;100760.72;;;20.82;68.70
39773;BME280;25451;51.960;6.250;2023-07-16T00:39:49;100758.84;;;20.78;68.78
39773;BME280;25451;51.960;6.250;2023-07-16T00:42:14;100759.69;;;20.78;68.80
39773;BME280;25451;51.960;6.250;2023-07-16T00:44:40;100763.09;;;20.75;68.94
39773;BME280;25451;51.960;6.250;2023-07-16T00:47:05;100754.50;;;20.72;68.98
39773;BME280;25451;51.960;6.250;2023-07-16T00:49:31;100766.88;;;20.71;68.99
39773;BME280;25451;51.960;6.250;2023-07-16T00:51:58;100777.44;;;20.74;69.11
39773;BME280;25451;51.960;6.250;2023-07-16T00:54:23;100775.81;;;20.73;69.10
39773;BME280;25451;51.960;6.250;2023-07-16T00:56:48;100773.28;;;20.71;69.20
39773;BME280;25451;51.960;6.250;2023-07-16T00:59:14;100777.25;;;20.70;69.36
39773;BME280;25451;51.960;6.250;2023-07-16T01:01:39;100773.09;;;20.67;69.42
39773;BME280;25451;51.960;6.250;2023-07-16T01:04:05;100757.72;;;20.65;69.60
39773;BME280;25451;51.960;6.250;2023-07-16T01:06:37;100761.03;;;20.67;69.66
39773;BME280;25451;51.960;6.250;2023-07-16T01:09:07;100763.03;;;20.67;69.67
39773;BME280;25451;51.960;6.250;2023-07-16T01:11:34;100756.91;;;20.64;69.75
39773;BME280;25451;51.960;6.250;2023-07-16T01:14:02;100760.00;;;20.63;69.72
39773;BME280;25451;51.960;6.250;2023-07-16T01:16:28;100763.75;;;20.58;69.79
39773;BME280;25451;51.960;6.250;2023-07-16T01:18:53;100771.34;;;20.58;69.79
39773;BME280;25451;51.960;6.250;2023-07-16T01:21:20;100780.03;;;20.56;69.74
39773;BME280;25451;51.960;6.250;2023-07-16T01:26:39;100763.16;;;20.48;69.54
39773;BME280;25451;51.960;6.250;2023-07-16T01:29:31;100781.94;;;20.47;69.62
39773;BME280;25451;51.960;6.250;2023-07-16T01:31:59;100770.59;;;20.39;69.67
39773;BME280;25451;51.960;6.250;2023-07-16T01:34:26;100777.88;;;20.40;69.63
39773;BME280;25451;51.960;6.250;2023-07-16T01:36:53;100759.06;;;20.27;69.55
39773;BME280;25451;51.960;6.250;2023-07-16T01:39:19;100770.19;;;20.32;69.80
39773;BME280;25451;51.960;6.250;2023-07-16T01:41:44;100774.25;;;20.26;69.59
39773;BME280;25451;51.960;6.250;2023-07-16T01:44:10;100776.00;;;20.22;69.50
39773;BME280;25451;51.960;6.250;2023-07-16T01:46:35;100781.91;;;20.20;69.45
39773;BME280;25451;51.960;6.250;2023-07-16T01:49:01;100764.41;;;20.10;69.47
39773;BME280;25451;51.960;6.250;2023-07-16T01:51:26;100756.13;;;20.05;69.57
39773;BME280;25451;51.960;6.250;2023-07-16T01:53:51;100763.09;;;20.07;69.58
39773;BME280;25451;51.960;6.250;2023-07-16T01:56:17;100768.97;;;20.06;69.50
39773;BME280;25451;51.960;6.250;2023-07-16T01:58:42;100754.88;;;19.97;69.59
39773;BME280;25451;51.960;6.250;2023-07-16T02:01:07;100751.03;;;19.93;69.40
39773;BME280;25451;51.960;6.250;2023-07-16T02:03:33;100763.03;;;19.94;69.38
39773;BME280;25451;51.960;6.250;2023-07-16T02:05:58;100760.34;;;19.89;69.37
39773;BME280;25451;51.960;6.250;2023-07-16T02:08:23;100768.31;;;19.81;69.26
39773;BME280;25451;51.960;6.250;2023-07-16T02:10:49;100758.56;;;19.79;69.35
39773;BME280;25451;51.960;6.250;2023-07-16T02:13:14;100763.66;;;19.77;69.22
39773;BME280;25451;51.960;6.250;2023-07-16T02:15:39;100771.28;;;19.71;69.29
39773;BME280;25451;51.960;6.250;2023-07-16T02:18:05;100768.88;;;19.65;69.23
39773;BME280;25451;51.960;6.250;2023-07-16T02:20:31;100771.69;;;19.65;69.21
39773;BME280;25451;51.960;6.250;2023-07-16T02:22:56;100772.09;;;19.58;69.24
39773;BME280;25451;51.960;6.250;2023-07-16T02:25:22;100767.72;;;19.52;69.19
39773;BME280;25451;51.960;6.250;2023-07-16T02:27:47;100771.03;;;19.54;69.22
39773;BME280;25451;51.960;6.250;2023-07-16T02:30:14;100778.59;;;19.54;69.10
39773;BME280;25451;51.960;6.250;2023-07-16T02:32:40;100776.19;;;19.47;69.14
39773;BME280;25451;51.960;6.250;2023-07-16T02:35:06;100777.03;;;19.48;69.06
39773;BME280;25451;51.960;6.250;2023-07-16T02:37:31;100765.16;;;19.37;69.16
39773;BME280;25451;51.960;6.250;2023-07-16T02:39:56;100771.91;;;19.36;69.16
39773;BME280;25451;51.960;6.250;2023-07-16T02:42:22;100772.50;;;19.33;69.22
39773;BME280;25451;51.960;6.250;2023-07-16T02:44:47;100773.91;;;19.31;69.08
39773;BME280;25451;51.960;6.250;2023-07-16T02:47:13;100788.97;;;19.35;69.28
39773;BME280;25451;51.960;6.250;2023-07-16T02:49:38;100785.94;;;19.31;69.06
39773;BME280;25451;51.960;6.250;2023-07-16T02:52:05;100779.66;;;19.21;69.16
39773;BME280;25451;51.960;6.250;2023-07-16T02:54:31;100785.72;;;19.28;69.25
39773;BME280;25451;51.960;6.250;2023-07-16T02:56:57;100783.19;;;19.26;69.42
39773;BME280;25451;51.960;6.250;2023-07-16T02:59:22;100777.91;;;19.25;69.30
39773;BME280;25451;51.960;6.250;2023-07-16T03:01:48;100786.94;;;19.22;69.26
39773;BME280;25451;51.960;6.250;2023-07-16T03:04:13;100776.84;;;19.21;69.32
39773;BME280;25451;51.960;6.250;2023-07-16T03:06:38;100780.78;;;19.20;69.46
39773;BME280;25451;51.960;6.250;2023-07-16T03:09:04;100782.75;;;19.19;69.50
39773;BME280;25451;51.960;6.250;2023-07-16T03:11:29;100787.28;;;19.15;69.33
39773;BME280;25451;51.960;6.250;2023-07-16T03:13:54;100778.91;;;19.15;69.43
39773;BME280;25451;51.960;6.250;2023-07-16T03:16:20;100775.56;;;19.13;69.29
39773;BME280;25451;51.960;6.250;2023-07-16T03:18:45;100783.97;;;19.13;69.41
39773;BME280;25451;51.960;6.250;2023-07-16T03:21:11;100791.84;;;19.11;69.58
39773;BME280;25451;51.960;6.250;2023-07-16T03:23:37;100784.66;;;19.05;69.43
39773;BME280;25451;51.960;6.250;2023-07-16T03:26:02;100786.91;;;19.03;69.67
39773;BME280;25451;51.960;6.250;2023-07-16T03:28:27;100792.41;;;19.08;69.68
39773;BME280;25451;51.960;6.250;2023-07-16T03:30:53;100796.97;;;19.04;69.83
39773;BME280;25451;51.960;6.250;2023-07-16T03:33:19;100791.91;;;19.06;69.86
39773;BME280;25451;51.960;6.250;2023-07-16T03:35:45;100780.25;;;18.99;69.77
39773;BME280;25451;51.960;6.250;2023-07-16T03:38:11;100793.34;;;19.03;70.01
39773;BME280;25451;51.960;6.250;2023-07-16T03:40:36;100795.63;;;19.01;70.03
39773;BME280;25451;51.960;6.250;2023-07-16T03:43:02;100804.28;;;19.00;70.13
39773;BME280;25451;51.960;6.250;2023-07-16T03:45:27;100809.13;;;18.94;70.10
39773;BME280;25451;51.960;6.250;2023-07-16T03:47:53;100816.09;;;18.97;70.20
39773;BME280;25451;51.960;6.250;2023-07-16T03:50:18;100816.09;;;18.97;70.32
39773;BME280;25451;51.960;6.250;2023-07-16T03:52:44;100821.16;;;18.95;70.31
39773;BME280;25451;51.960;6.250;2023-07-16T03:55:09;100829.84;;;18.93;70.36
39773;BME280;25451;51.960;6.250;2023-07-16T03:57:35;100825.38;;;18.92;70.29
39773;BME280;25451;51.960;6.250;2023-07-16T04:00:01;100838.84;;;18.90;70.29
39773;BME280;25451;51.960;6.250;2023-07-16T04:02:26;100821.22;;;18.90;70.43
39773;BME280;25451;51.960;6.250;2023-07-16T04:04:51;100830.75;;;18.89;70.36
39773;BME280;25451;51.960;6.250;2023-07-16T04:07:17;100841.41;;;18.87;70.42
39773;BME280;25451;51.960;6.250;2023-07-16T04:09:43;100850.91;;;18.86;70.54
39773;BME280;25451;51.960;6.250;2023-07-16T04:12:08;100837.53;;;18.83;70.30
39773;BME280;25451;51.960;6.250;2023-07-16T04:14:33;100839.81;;;18.81;70.70
39773;BME280;25451;51.960;6.250;2023-07-16T04:16:59;100815.97;;;18.65;70.78
39773;BME280;25451;51.960;6.250;2023-07-16T04:19:24;100846.81;;;18.78;70.80
39773;BME280;25451;51.960;6.250;2023-07-16T04:21:49;100864.97;;;18.81;70.69
39773;BME280;25451;51.960;6.250;2023-07-16T04:24:15;100867.50;;;18.77;70.64
39773;BME280;25451;51.960;6.250;2023-07-16T04:26:40;100870.03;;;18.79;70.69
39773;BME280;25451;51.960;6.250;2023-07-16T04:29:05;100859.44;;;18.76;70.95
39773;BME280;25451;51.960;6.250;2023-07-16T04:31:31;100861.38;;;18.75;70.78
39773;BME280;25451;51.960;6.250;2023-07-16T04:33:56;100865.88;;;18.76;70.89
39773;BME280;25451;51.960;6.250;2023-07-16T04:36:22;100872.31;;;18.77;70.73
39773;BME280;25451;51.960;6.250;2023-07-16T04:38:47;100873.09;;;18.77;70.76
39773;BME280;25451;51.960;6.250;2023-07-16T04:41:12;100878.16;;;18.75;70.84
39773;BME280;25451;51.960;6.250;2023-07-16T04:43:38;100885.44;;;18.76;70.72
39773;BME280;25451;51.960;6.250;2023-07-16T04:46:04;100892.69;;;18.77;70.70
39773;BME280;25451;51.960;6.250;2023-07-16T04:48:29;100895.47;;;18.77;70.80
39773;BME280;25451;51.960;6.250;2023-07-16T04:50:54;100890.50;;;18.74;70.61
39773;BME280;25451;51.960;6.250;2023-07-16T04:53:20;100890.72;;;18.78;70.51
39773;BME280;25451;51.960;6.250;2023-07-16T04:55:45;100889.06;;;18.77;70.41
39773;BME280;25451;51.960;6.250;2023-07-16T04:58:11;100890.72;;;18.78;70.17
39773;BME280;25451;51.960;6.250;2023-07-16T05:00:37;100895.47;;;18.77;70.29
39773;BME280;25451;51.960;6.250;2023-07-16T05:03:02;100902.97;;;18.82;70.12
39773;BME280;25451;51.960;6.250;2023-07-16T05:05:28;100903.47;;;18.89;70.10
39773;BME280;25451;51.960;6.250;2023-07-16T05:07:53;100907.38;;;18.88;69.92
39773;BME280;25451;51.960;6.250;2023-07-16T05:10:19;100912.31;;;18.96;69.65
39773;BME280;25451;51.960;6.250;2023-07-16T05:12:44;100906.72;;;18.96;69.45
39773;BME280;25451;51.960;6.250;2023-07-16T05:15:09;100914.22;;;19.00;69.29
39773;BME280;25451;51.960;6.250;2023-07-16T05:17:35;100916.72;;;19.02;69.13
39773;BME280;25451;51.960;6.250;2023-07-16T05:20:00;100925.59;;;19.09;69.05
39773;BME280;25451;51.960;6.250;2023-07-16T05:22:25;100916.91;;;19.11;68.74
39773;BME280;25451;51.960;6.250;2023-07-16T05:24:51;100926.59;;;19.18;68.46
39773;BME280;25451;51.960;6.250;2023-07-16T05:27:16;100926.53;;;19.23;68.40
39773;BME280;25451;51.960;6.250;2023-07-16T05:29:41;100920.88;;;19.28;68.11
39773;BME280;25451;51.960;6.250;2023-07-16T05:32:07;100940.97;;;19.35;67.85
39773;BME280;25451;51.960;6.250;2023-07-16T05:34:32;100936.97;;;19.41;67.66
39773;BME280;25451;51.960;6.250;2023-07-16T05:36:58;100938.03;;;19.45;67.36
39773;BME280;25451;51.960;6.250;2023-07-16T05:39:24;100933.50;;;19.49;67.12
39773;BME280;25451;51.960;6.250;2023-07-16T05:41:49;100935.09;;;19.55;67.12
39773;BME280;25451;51.960;6.250;2023-07-16T05:44:15;100922.69;;;19.61;66.55
39773;BME280;25451;51.960;6.250;2023-07-16T05:46:40;100933.72;;;19.71;66.64
39773;BME280;25451;51.960;6.250;2023-07-16T05:49:05;100929.72;;;19.77;66.25
39773;BME280;25451;51.960;6.250;2023-07-16T05:51:31;100939.94;;;19.87;66.20
39773;BME280;25451;51.960;6.250;2023-07-16T05:53:57;100925.53;;;19.94;66.04
39773;BME280;25451;51.960;6.250;2023-07-16T05:56:22;100941.97;;;20.00;65.80
39773;BME280;25451;51.960;6.250;2023-07-16T05:58:47;100943.03;;;20.04;65.59
39773;BME280;25451;51.960;6.250;2023-07-16T06:01:13;100944.41;;;20.07;65.62
39773;BME280;25451;51.960;6.250;2023-07-16T06:03:38;100950.00;;;20.07;65.48
39773;BME280;25451;51.960;6.250;2023-07-16T06:06:04;100949.47;;;20.05;65.28
39773;BME280;25451;51.960;6.250;2023-07-16T06:08:29;100957.88;;;20.05;65.37
39773;BME280;25451;51.960;6.250;2023-07-16T06:10:55;100939.69;;;20.02;65.38
39773;BME280;25451;51.960;6.250;2023-07-16T06:13:20;100960.38;;;20.06;65.38
39773;BME280;25451;51.960;6.250;2023-07-16T06:15:47;100957.34;;;20.03;65.38
39773;BME280;25451;51.960;6.250;2023-07-16T06:18:12;100966.06;;;20.01;65.33
39773;BME280;25451;51.960;6.250;2023-07-16T06:20:38;100956.28;;;19.99;65.22
39773;BME280;25451;51.960;6.250;2023-07-16T06:23:03;100951.28;;;19.96;65.23
39773;BME280;25451;51.960;6.250;2023-07-16T06:25:29;100953.88;;;19.92;65.44
39773;BME280;25451;51.960;6.250;2023-07-16T06:27:54;100959.78;;;19.91;65.37
39773;BME280;25451;51.960;6.250;2023-07-16T06:30:19;100968.25;;;19.85;65.42
39773;BME280;25451;51.960;6.250;2023-07-16T06:32:45;100951.22;;;19.82;65.74
39773;BME280;25451;51.960;6.250;2023-07-16T06:35:10;100954.91;;;19.77;65.28
39773;BME280;25451;51.960;6.250;2023-07-16T06:37:36;100968.88;;;19.82;65.29
39773;BME280;25451;51.960;6.250;2023-07-16T06:40:01;100973.31;;;19.83;65.05
39773;BME280;25451;51.960;6.250;2023-07-16T06:42:26;100970.00;;;19.81;64.90
39773;BME280;25451;51.960;6.250;2023-07-16T06:44:52;100970.53;;;19.83;64.88
39773;BME280;25451;51.960;6.250;2023-07-16T06:47:17;100983.94;;;19.87;64.83
39773;BME280;25451;51.960;6.250;2023-07-16T06:49:42;100971.59;;;19.88;64.77
39773;BME280;25451;51.960;6.250;2023-07-16T06:52:08;100979.72;;;19.89;64.73
39773;BME280;25451;51.960;6.250;2023-07-16T06:54:33;100987.81;;;19.91;64.56
39773;BME280;25451;51.960;6.250;2023-07-16T06:56:59;100994.25;;;19.91;64.44
39773;BME280;25451;51.960;6.250;2023-07-16T06:59:24;100991.13;;;19.93;64.59
39773;BME280;25451;51.960;6.250;2023-07-16T07:01:49;100989.16;;;19.93;64.41
39773;BME280;25451;51.960;6.250;2023-07-16T07:04:15;100993.03;;;19.97;64.37
39773;BME280;25451;51.960;6.250;2023-07-16T07:06:40;101000.50;;;20.02;64.21
39773;BME280;25451;51.960;6.250;2023-07-16T07:09:05;100997.69;;;20.02;64.16
39773;BME280;25451;51.960;6.250;2023-07-16T07:11:31;100997.63;;;20.07;64.08
39773;BME280;25451;51.960;6.250;2023-07-16T07:13:56;101000.88;;;20.14;63.93
39773;BME280;25451;51.960;6.250;2023-07-16T07:16:22;100994.66;;;20.22;63.84
39773;BME280;25451;51.960;6.250;2023-07-16T07:18:48;101007.97;;;20.30;63.55
39773;BME280;25451;51.960;6.250;2023-07-16T07:21:13;101002.19;;;20.40;63.31
39773;BME280;25451;51.960;6.250;2023-07-16T07:23:39;101005.94;;;20.49;63.05
39773;BME280;25451;51.960;6.250;2023-07-16T07:26:05;100999.31;;;20.58;62.85
39773;BME280;25451;51.960;6.250;2023-07-16T07:28:30;101008.94;;;20.71;62.46
39773;BME280;25451;51.960;6.250;2023-07-16T07:30:56;100993.91;;;20.81;62.29
39773;BME280;25451;51.960;6.250;2023-07-16T07:33:21;100999.19;;;20.82;62.16
39773;BME280;25451;51.960;6.250;2023-07-16T07:35:46;101017.34;;;21.03;62.03
39773;BME280;25451;51.960;6.250;2023-07-16T07:38:12;101014.03;;;21.15;61.73
39773;BME280;25451;51.960;6.250;2023-07-16T07:40:37;101004.06;;;21.22;61.57
39773;BME280;25451;51.960;6.250;2023-07-16T07:43:02;101005.22;;;21.35;61.27
39773;BME280;25451;51.960;6.250;2023-07-16T07:45:28;101014.47;;;21.49;61.21
39773;BME280;25451;51.960;6.250;2023-07-16T07:47:53;101019.56;;;21.61;61.07
39773;BME280;25451;51.960;6.250;2023-07-16T07:50:18;101006.97;;;21.72;60.75
39773;BME280;25451;51.960;6.250;2023-07-16T07:52:44;101019.03;;;21.86;60.69
39773;BME280;25451;51.960;6.250;2023-07-16T07:55:09;101018.50;;;21.97;60.47
39773;BME280;25451;51.960;6.250;2023-07-16T07:57:35;101025.22;;;22.10;60.21
39773;BME280;25451;51.960;6.250;2023-07-16T08:00:00;101026.16;;;22.19;59.83
39773;BME280;25451;51.960;6.250;2023-07-16T08:02:25;101023.28;;;22.33;59.85
39773;BME280;25451;51.960;6.250;2023-07-16T08:04:52;101040.09;;;22.46;59.46
39773;BME280;25451;51.960;6.250;2023-07-16T08:07:17;101020.81;;;22.53;59.50
39773;BME280;25451;51.960;6.250;2023-07-16T08:09:43;101024.09;;;22.69;59.13
39773;BME280;25451;51.960;6.250;2023-07-16T08:12:08;101031.47;;;22.78;59.24
39773;BME280;25451;51.960;6.250;2023-07-16T08:14:33;101030.03;;;22.89;58.90
39773;BME280;25451;51.960;6.250;2023-07-16T08:16:59;101023.59;;;22.97;58.70
39773;BME280;25451;51.960;6.250;2023-07-16T08:19:24;101026.97;;;23.08;58.51
39773;BME280;25451;51.960;6.250;2023-07-16T08:21:49;101041.63;;;23.19;58.35
39773;BME280;25451;51.960;6.250;2023-07-16T08:24:15;101014.75;;;23.13;58.07
39773;BME280;25451;51.960;6.250;2023-07-16T08:26:40;101038.72;;;23.32;58.08
39773;BME280;25451;51.960;6.250;2023-07-16T08:29:06;101039.28;;;23.43;57.80
39773;BME280;25451;51.960;6.250;2023-07-16T08:31:31;101046.44;;;23.49;57.84
39773;BME280;25451;51.960;6.250;2023-07-16T08:33:56;101044.47;;;23.58;57.66
39773;BME280;25451;51.960;6.250;2023-07-16T08:36:22;101052.16;;;23.66;57.20
39773;BME280;25451;51.960;6.250;2023-07-16T08:38:47;101063.13;;;23.76;57.02
39773;BME280;25451;51.960;6.250;2023-07-16T08:41:14;101057.66;;;23.79;57.01
39773;BME280;25451;51.960;6.250;2023-07-16T08:43:39;101056.16;;;23.82;56.92
39773;BME280;25451;51.960;6.250;2023-07-16T08:46:05;101055.66;;;23.88;56.58
39773;BME280;25451;51.960;6.250;2023-07-16T08:48:31;101064.81;;;23.94;56.67
39773;BME280;25451;51.960;6.250;2023-07-16T08:50:58;101055.84;;;24.01;56.89
39773;BME280;25451;51.960;6.250;2023-07-16T08:53:25;101069.72;;;24.11;56.54
39773;BME280;25451;51.960;6.250;2023-07-16T08:55:51;101078.84;;;24.16;56.49
39773;BME280;25451;51.960;6.250;2023-07-16T08:58:16;101065.22;;;24.18;56.40
39773;BME280;25451;51.960;6.250;2023-07-16T09:00:43;101072.69;;;24.31;56.09
39773;BME280;25451;51.960;6.250;2023-07-16T09:03:11;101082.00;;;24.40;56.03
39773;BME280;25451;51.960;6.250;2023-07-16T09:05:38;101086.19;;;24.51;55.76
39773;BME280;25451;51.960;6.250;2023-07-16T09:08:04;101085.00;;;24.61;55.38
39773;BME280;25451;51.960;6.250;2023-07-16T09:10:29;101082.19;;;24.69;55.12
39773;BME280;25451;51.960;6.250;2023-07-16T09:12:58;101071.41;;;24.80;54.86
39773;BME280;25451;51.960;6.250;2023-07-16T09:15:23;101078.72;;;24.90;54.52
39773;BME280;25451;51.960;6.250;2023-07-16T09:17:49;101096.66;;;25.02;54.44
39773;BME280;25451;51.960;6.250;2023-07-16T09:20:18;101086.00;;;25.08;54.42
39773;BME280;25451;51.960;6.250;2023-07-16T09:22:44;101091.44;;;25.13;54.17
39773;BME280;25451;51.960;6.250;2023-07-16T09:25:10;101083.66;;;25.18;54.01
39773;BME280;25451;51.960;6.250;2023-07-16T09:27:36;101089.59;;;25.25;53.91
39773;BME280;25451;51.960;6.250;2023-07-16T09:30:03;101097.22;;;25.33;53.32
39773;BME280;25451;51.960;6.250;2023-07-16T09:32:37;101088.91;;;25.45;53.32
39773;BME280;25451;51.960;6.250;2023-07-16T09:35:07;101090.53;;;25.55;53.27
39773;BME280;25451;51.960;6.250;2023-07-16T09:37:36;101093.00;;;25.65;52.79
39773;BME280;25451;51.960;6.250;2023-07-16T09:40:02;101098.44;;;25.70;52.63
39773;BME280;25451;51.960;6.250;2023-07-16T09:42:28;101093.28;;;25.72;52.70
39773;BME280;25451;51.960;6.250;2023-07-16T09:44:54;101094.75;;;25.78;52.65
39773;BME280;25451;51.960;6.250;2023-07-16T09:47:21;101097.75;;;25.82;52.37
39773;BME280;25451;51.960;6.250;2023-07-16T09:49:46;101097.06;;;25.85;52.38
39773;BME280;25451;51.960;6.250;2023-07-16T09:52:12;101106.16;;;25.90;52.03
39773;BME280;25451;51.960;6.250;2023-07-16T09:54:40;101092.03;;;25.90;51.78
39773;BME280;25451;51.960;6.250;2023-07-16T09:57:06;101108.81;;;25.95;51.90
39773;BME280;25451;51.960;6.250;2023-07-16T09:59:33;101111.31;;;25.97;51.51
39773;BME280;25451;51.960;6.250;2023-07-16T10:01:59;101110.81;;;25.95;51.36
39773;BME280;25451;51.960;6.250;2023-07-16T10:04:25;101115.16;;;25.92;51.35
39773;BME280;25451;51.960;6.250;2023-07-16T10:06:54;101114.00;;;25.93;51.43
39773;BME280;25451;51.960;6.250;2023-07-16T10:09:42;101124.47;;;25.93;51.14
39773;BME280;25451;51.960;6.250;2023-07-16T10:14:43;101123.50;;;25.89;51.28
39773;BME280;25451;51.960;6.250;2023-07-16T10:17:12;101132.81;;;25.89;51.13
39773;BME280;25451;51.960;6.250;2023-07-16T10:22:41;101130.16;;;25.84;51.07
39773;BME280;25451;51.960;6.250;2023-07-16T10:27:34;101141.66;;;25.88;50.95
39773;BME280;25451;51.960;6.250;2023-07-16T10:30:00;101147.81;;;25.81;50.96
39773;BME280;25451;51.960;6.250;2023-07-16T10:32:29;101151.00;;;25.80;50.89
39773;BME280;25451;51.960;6.250;2023-07-16T10:34:55;101140.22;;;25.73;50.72
39773;BME280;25451;51.960;6.250;2023-07-16T10:37:20;101149.84;;;25.72;50.77
39773;BME280;25451;51.960;6.250;2023-07-16T10:39:50;101158.81;;;25.74;50.69
39773;BME280;25451;51.960;6.250;2023-07-16T10:42:16;101156.84;;;25.66;50.83
39773;BME280;25451;51.960;6.250;2023-07-16T10:44:42;101172.97;;;25.66;50.54
39773;BME280;25451;51.960;6.250;2023-07-16T10:47:09;101162.72;;;25.61;50.39
39773;BME280;25451;51.960;6.250;2023-07-16T10:49:35;101172.00;;;25.62;50.37
39773;BME280;25451;51.960;6.250;2023-07-16T10:52:01;101172.34;;;25.60;50.30
39773;BME280;25451;51.960;6.250;2023-07-16T10:54:26;101175.03;;;25.57;50.41
39773;BME280;25451;51.960;6.250;2023-07-16T10:56:52;101172.53;;;25.55;50.55
39773;BME280;25451;51.960;6.250;2023-07-16T10:59:18;101182.16;;;25.54;50.32
39773;BME280;25451;51.960;6.250;2023-07-16T11:01:44;101183.34;;;25.53;50.29
39773;BME280;25451;51.960;6.250;2023-07-16T11:04:09;101178.00;;;25.52;50.05
39773;BME280;25451;51.960;6.250;2023-07-16T11:06:34;101180.34;;;25.49;50.10
39773;BME280;25451;51.960;6.250;2023-07-16T11:09:08;101186.69;;;25.46;50.08
39773;BME280;25451;51.960;6.250;2023-07-16T11:11:33;101176.38;;;25.42;50.03
39773;BME280;25451;51.960;6.250;2023-07-16T11:13:59;101182.03;;;25.42;50.03
39773;BME280;25451;51.960;6.250;2023-07-16T11:16:24;101168.06;;;25.37;50.04
39773;BME280;25451;51.960;6.250;2023-07-16T11:18:51;101165.88;;;25.34;50.14
39773;BME280;25451;51.960;6.250;2023-07-16T11:21:19;101179.84;;;25.39;50.03
39773;BME280;25451;51.960;6.250;2023-07-16T11:23:45;101177.34;;;25.37;50.12
39773;BME280;25451;51.960;6.250;2023-07-16T11:26:10;101172.19;;;25.39;50.29
39773;BME280;25451;51.960;6.250;2023-07-16T11:28:40;101179.69;;;25.44;50.13
39773;BME280;25451;51.960;6.250;2023-07-16T11:31:14;101171.72;;;25.46;50.24
39773;BME280;25451;51.960;6.250;2023-07-16T11:33:45;101176.22;;;25.47;49.86
39773;BME280;25451;51.960;6.250;2023-07-16T11:36:10;101172.19;;;25.48;49.83
39773;BME280;25451;51.960;6.250;2023-07-16T11:38:37;101176.50;;;25.54;49.60
39773;BME280;25451;51.960;6.250;2023-07-16T11:41:02;101178.34;;;25.59;49.86
39773;BME280;25451;51.960;6.250;2023-07-16T11:43:28;101175.00;;;25.65;49.75
39773;BME280;25451;51.960;6.250;2023-07-16T11:45:53;101170.16;;;25.66;49.76
39773;BME280;25451;51.960;6.250;2023-07-16T11:48:18;101185.44;;;25.73;49.59
39773;BME280;25451;51.960;6.250;2023-07-16T11:50:44;101189.63;;;25.76;49.61
39773;BME280;25451;51.960;6.250;2023-07-16T11:53:10;101194.44;;;25.75;49.41
39773;BME280;25451;51.960;6.250;2023-07-16T11:55:36;101197.91;;;25.72;49.31
39773;BME280;25451;51.960;6.250;2023-07-16T11:58:01;101202.25;;;25.70;49.54
39773;BME280;25451;51.960;6.250;2023-07-16T12:00:28;101197.13;;;25.63;49.39
39773;BME280;25451;51.960;6.250;2023-07-16T12:02:54;101199.47;;;25.61;49.54
39773;BME280;25451;51.960;6.250;2023-07-16T12:05:22;101208.75;;;25.62;49.39
39773;BME280;25451;51.960;6.250;2023-07-16T12:07:53;101202.94;;;25.58;49.34
39773;BME280;25451;51.960;6.250;2023-07-16T12:10:18;101211.13;;;25.51;49.39
39773;BME280;25451;51.960;6.250;2023-07-16T12:12:44;101200.13;;;25.49;49.29
39773;BME280;25451;51.960;6.250;2023-07-16T12:15:09;101217.28;;;25.44;49.39
39773;BME280;25451;51.960;6.250;2023-07-16T12:17:35;101216.28;;;25.40;49.32
39773;BME280;25451;51.960;6.250;2023-07-16T12:20:03;101211.59;;;25.36;49.20
39773;BME280;25451;51.960;6.250;2023-07-16T12:22:29;101218.59;;;25.30;49.27
39773;BME280;25451;51.960;6.250;2023-07-16T12:24:55;101221.56;;;25.25;49.39
39773;BME280;25451;51.960;6.250;2023-07-16T12:27:21;101220.09;;;25.19;49.30
39773;BME280;25451;51.960;6.250;2023-07-16T12:29:46;101216.09;;;25.11;49.53
39773;BME280;25451;51.960;6.250;2023-07-16T12:32:13;101221.09;;;25.06;49.28
39773;BME280;25451;51.960;6.250;2023-07-16T12:34:39;101224.41;;;24.99;49.58
39773;BME280;25451;51.960;6.250;2023-07-16T12:37:04;101221.25;;;25.01;49.68
39773;BME280;25451;51.960;6.250;2023-07-16T12:39:30;101222.25;;;25.05;49.67
39773;BME280;25451;51.960;6.250;2023-07-16T12:41:55;101226.75;;;25.06;49.69
39773;BME280;25451;51.960;6.250;2023-07-16T12:44:20;101227.75;;;25.10;49.53
39773;BME280;25451;51.960;6.250;2023-07-16T12:46:46;101218.78;;;25.08;49.39
39773;BME280;25451;51.960;6.250;2023-07-16T12:49:11;101229.22;;;25.07;49.29
39773;BME280;25451;51.960;6.250;2023-07-16T12:51:36;101242.22;;;25.08;49.08
39773;BME280;25451;51.960;6.250;2023-07-16T12:54:02;101236.88;;;25.07;49.32